Boston, New York
Current Conditions -  °F | °C
As of 6:54 AM on Tuesday 21 Oct 2014 (Local Time) from KBUF Reporting Station
Haze Haze  
Wind Chill: 50°   Ceiling: 1900
Heat Index: 50°   Visibility: 3mi
Dew Point: 48°   Wind: 5mph
Humidity: 93%   Direction: 280°W
Pressure: 29.8"   Gusts: NA
Location:  42.63°N, 78.74°W
Report Text: KBUF 211054Z 28004KT 3SM BR OVC019 10/09 A2980 RMK AO2 SLP093 T01000089
Loading
Personal Weather Stations






























Interactive Weather Map
Tropical Storm Tracking
New forecast layout! Learn more

10-Day Weather Forecast

Advertisements
Track Severe Weather on mobile